BOJ weather

Burgas Airport
Burgas, Burgas Province, Bulgaria

Public forecast

Using degrees Celsius for public forecast. Weather courtesy of forecast.io.

METAR (pilot weather report)

Retrieved 2018/10/16 12:30 UTC (0 seconds ago):

LBBG 161230Z 06006KT 360V110 9999 OVC032 20/13 Q1022 NOSIG

TAF (pilot weather forecast)

Retrieved 2018/10/16 12:18 UTC (9 minutes ago):

TAF TAF LBBG 161100Z 1612/1712 12014KT 9999 SCT025 BECMG 1617/1619 02010KT BECMG 1623/1701 VRB04KT 5000 BR SCT010 TEMPO 1701/1706 1500 BR BKN008 BECMG 1707/1709 13010KT 9999 SCT033